Time;durP1;ratioP1;P1;durP2;ratioP2;P2;SDS_P1;SDS_P2;PMS_P1;PMS_P2;Temp;Humidity;BMP_temperature;BMP_pressure;BME280_temperature;BME280_humidity;BME280_pressure;Samples;Min_cycle;Max_cycle;Signal;HPM_P1;HPM_P2
2022/01/27 00:05:19;;;;;;;4.88;3.35;;;;;;;;;;5093389;28;20085;-46
2022/01/27 00:12:59;;;;;;;4.80;3.67;;;;;;;;;;5093247;28;20397;-69
2022/01/27 00:15:31;;;;;;;3.50;3.20;;;;;;;;;;5093112;28;20102;-69
2022/01/27 00:18:01;;;;;;;4.57;3.30;;;;;;;;;;5093355;28;20035;-69
2022/01/27 00:20:27;;;;;;;6.07;3.70;;;;;;;;;;5093512;28;20426;-69
2022/01/27 00:22:53;;;;;;;6.82;3.78;;;;;;;;;;5092822;28;20031;-69
2022/01/27 00:25:19;;;;;;;4.80;3.53;;;;;;;;;;5092880;28;20089;-69
2022/01/27 00:27:46;;;;;;;5.20;3.40;;;;;;;;;;5092903;28;20028;-69
2022/01/27 00:30:12;;;;;;;4.28;3.65;;;;;;;;;;5092732;28;20034;-47
2022/01/27 00:32:38;;;;;;;4.95;3.15;;;;;;;;;;5092853;28;20424;-46
2022/01/27 00:35:05;;;;;;;5.65;3.67;;;15.10;91.60;;;;;;5092872;28;20046;-47
2022/01/27 00:37:31;;;;;;;4.20;3.53;;;;;;;;;;5092456;28;20031;-46
2022/01/27 00:39:57;;;;;;;6.13;4.00;;;;;;;;;;5092782;28;20492;-46
2022/01/27 00:42:25;;;;;;;6.72;3.60;;;;;;;;;;5092758;28;20048;-47
2022/01/27 00:44:51;;;;;;;4.78;3.63;;;;;;;;;;5092585;28;20032;-46
2022/01/27 00:47:17;;;;;;;5.60;3.75;;;;;;;;;;5092708;28;20425;-46
2022/01/27 00:49:43;;;;;;;4.75;3.60;;;;;;;;;;5092678;28;20032;-46
2022/01/27 00:52:15;;;;;;;6.20;3.40;;;;;;;;;;5092603;28;20122;-47
2022/01/27 00:54:41;;;;;;;4.80;3.72;;;;;;;;;;5092516;28;20540;-46
2022/01/27 00:57:15;;;;;;;4.05;3.47;;;;;;;;;;5092546;28;20046;-46
2022/01/27 00:59:55;;;;;;;4.05;3.25;;;;;;;;;;5092479;28;20028;-46
2022/01/27 01:04:57;;;;;;;5.10;3.65;;;;;;;;;;5092708;28;20048;-46
2022/01/27 01:07:24;;;;;;;5.65;3.25;;;;;;;;;;5092506;28;20047;-46
2022/01/27 01:13:31;;;;;;;5.07;3.45;;;;;;;;;;5092596;28;20555;-47
2022/01/27 01:15:36;;;;;;;5.07;3.58;;;;;;;;;;5092207;28;20051;-46
2022/01/27 01:31:55;;;;;;;6.32;3.13;;;;;;;;;;5092458;28;20071;-47
2022/01/27 01:34:24;;;;;;;5.43;3.70;;;;;;;;;;5092227;28;20031;-46
2022/01/27 01:36:57;;;;;;;5.63;3.90;;;15.00;91.90;;;;;;5092417;28;20028;-46
2022/01/27 01:39:25;;;;;;;5.25;3.72;;;14.90;91.90;;;;;;5092150;28;20023;-48
2022/01/27 01:41:52;;;;;;;3.78;3.17;;;;;;;;;;5092092;28;20115;-46
2022/01/27 01:44:18;;;;;;;4.07;3.15;;;;;;;;;;5092040;28;20474;-46
2022/01/27 01:46:44;;;;;;;5.63;2.80;;;;;;;;;;5092335;28;20382;-46
2022/01/27 01:49:10;;;;;;;5.10;3.08;;;;;;;;;;5092030;28;20024;-47
2022/01/27 01:51:38;;;;;;;4.28;3.17;;;14.90;92.00;;;;;;5095433;28;20039;-46
2022/01/27 01:54:05;;;;;;;4.78;3.08;;;;;;;;;;5095766;28;20031;-46
2022/01/27 01:56:31;;;;;;;4.47;3.30;;;;;;;;;;5095854;28;20020;-47
2022/01/27 01:58:58;;;;;;;3.40;2.92;;;;;;;;;;5095962;28;20020;-46
2022/01/27 02:01:24;;;;;;;4.75;3.45;;;;;;;;;;5095973;28;20165;-69
2022/01/27 02:03:50;;;;;;;4.00;2.95;;;;;;;;;;5095425;28;20131;-47
2022/01/27 02:06:24;;;;;;;4.50;3.13;;;14.90;92.10;;;;;;5095682;28;20078;-46
2022/01/27 02:09:10;;;;;;;5.90;3.15;;;;;;;;;;5095896;28;20417;-46
2022/01/27 02:19:53;;;;;;;6.53;3.30;;;14.80;92.40;;;;;;5095678;28;20075;-68
2022/01/27 02:22:20;;;;;;;3.78;3.13;;;14.80;92.40;;;;;;5095408;28;20020;-47
2022/01/27 02:24:46;;;;;;;5.78;3.40;;;;;;;;;;5095157;28;20497;-47
2022/01/27 02:27:13;;;;;;;3.63;2.95;;;;;;;;;;5095535;28;20063;-47
2022/01/27 02:29:40;;;;;;;3.85;3.22;;;;;;;;;;5095161;28;20028;-46
2022/01/27 02:32:06;;;;;;;4.82;3.25;;;;;;;;;;5095087;28;20113;-47
2022/01/27 02:34:32;;;;;;;5.57;3.25;;;;;;;;;;5095080;28;20024;-47
2022/01/27 02:36:58;;;;;;;6.72;3.47;;;;;;;;;;5095040;28;20035;-46
2022/01/27 02:39:24;;;;;;;5.07;3.30;;;;;;;;;;5095123;28;20033;-46
2022/01/27 02:41:50;;;;;;;4.00;3.28;;;;;;;;;;5095564;28;20024;-47
2022/01/27 02:44:31;;;;;;;4.53;3.60;;;14.80;89.50;;;;;;5095083;28;20042;-46
2022/01/27 02:46:58;;;;;;;4.07;3.35;;;;;;;;;;5094900;28;20471;-46
2022/01/27 02:49:24;;;;;;;4.28;3.05;;;;;;;;;;5094812;28;20103;-46
2022/01/27 02:51:50;;;;;;;5.13;3.88;;;;;;;;;;5094797;28;20059;-46
2022/01/27 02:54:16;;;;;;;4.18;2.83;;;;;;;;;;5094671;28;20032;-46
2022/01/27 02:56:47;;;;;;;7.18;3.55;;;;;;;;;;5094657;28;20034;-45
2022/01/27 02:59:17;;;;;;;6.55;3.50;;;14.70;89.40;;;;;;5094617;28;20028;-68
2022/01/27 03:01:46;;;;;;;;;;;14.60;92.80;;;;;;5094991;28;20021;-68
2022/01/27 03:04:12;;;;;;;4.00;2.90;;;;;;;;;;5094455;28;19916;-67
2022/01/27 03:06:38;;;;;;;4.45;3.13;;;;;;;;;;5094424;28;20031;-67
2022/01/27 03:09:04;;;;;;;3.70;3.28;;;;;;;;;;5094410;28;20435;-68
2022/01/27 03:11:57;;;;;;;5.35;3.25;;;14.70;88.80;;;;;;5094364;28;20031;-67
2022/01/27 03:14:23;;;;;;;5.13;3.38;;;;;;;;;;5094328;28;20059;-69
2022/01/27 03:16:50;;;;;;;4.35;2.90;;;;;;;;;;5094477;28;20083;-46
2022/01/27 03:19:16;;;;;;;4.85;3.55;;;;;;;;;;5094151;28;20032;-46
2022/01/27 03:21:42;;;;;;;6.47;3.78;;;;;;;;;;5094172;28;20080;-47
2022/01/27 03:24:08;;;;;;;5.63;3.67;;;;;;;;;;5093988;28;20043;-46
2022/01/27 03:26:34;;;;;;;3.42;3.05;;;;;;;;;;5094080;28;20035;-46
2022/01/27 03:29:00;;;;;;;4.13;3.08;;;;;;;;;;5094000;28;20031;-46
2022/01/27 03:31:26;;;;;;;4.35;2.90;;;;;;;;;;5093844;28;20039;-47
2022/01/27 03:33:52;;;;;;;6.07;3.75;;;;;;;;;;5093978;28;20032;-46
2022/01/27 03:36:18;;;;;;;4.90;3.50;;;;;;;;;;5093970;28;20027;-46
2022/01/27 03:38:45;;;;;;;5.55;3.25;;;;;;;;;;5093872;28;20032;-46
2022/01/27 03:41:12;;;;;;;6.10;3.25;;;;;;;;;;5093725;28;20028;-46
2022/01/27 03:43:40;;;;;;;4.03;3.38;;;14.50;92.10;;;;;;5093621;28;20036;-46
2022/01/27 03:46:06;;;;;;;4.25;3.50;;;14.50;92.20;;;;;;5093915;28;20027;-46
2022/01/27 03:48:33;;;;;;;5.15;3.50;;;;;;;;;;5093853;28;20035;-46
2022/01/27 03:50:59;;;;;;;6.15;3.72;;;;;;;;;;5093562;28;20025;-46
2022/01/27 03:53:25;;;;;;;5.05;3.53;;;;;;;;;;5093625;28;20024;-46
2022/01/27 03:55:51;;;;;;;6.32;3.50;;;;;;;;;;5093559;28;20538;-47
2022/01/27 03:58:17;;;;;;;3.95;3.53;;;;;;;;;;5093394;28;20020;-45
2022/01/27 04:00:43;;;;;;;4.00;3.58;;;;;;;;;;5093401;28;20028;-46
2022/01/27 04:03:11;;;;;;;4.32;3.00;;;;;;;;;;5093104;28;20059;-47
2022/01/27 04:05:41;;;;;;;4.38;3.60;;;14.40;90.80;;;;;;5093314;28;20035;-46
2022/01/27 04:08:08;;;;;;;4.57;3.08;;;;;;;;;;5093261;28;20486;-46
2022/01/27 04:10:34;;;;;;;4.32;3.75;;;;;;;;;;5093561;28;20414;-68
2022/01/27 04:13:01;;;;;;;4.40;3.35;;;;;;;;;;5093070;28;20146;-68
2022/01/27 04:15:27;;;;;;;4.63;3.17;;;;;;;;;;5093102;28;20030;-68
2022/01/27 04:17:53;;;;;;;6.05;3.88;;;;;;;;;;5093151;28;20494;-68
2022/01/27 04:20:19;;;;;;;3.65;3.22;;;;;;;;;;5093060;28;20028;-68
2022/01/27 04:22:46;;;;;;;4.25;3.33;;;;;;;;;;5093276;28;20261;-68
2022/01/27 04:25:12;;;;;;;5.57;3.30;;;;;;;;;;5092896;28;20040;-68
2022/01/27 04:27:41;;;;;;;4.03;3.10;;;;;;;;;;5092913;28;20073;-68
2022/01/27 04:30:15;;;;;;;4.72;3.30;;;;;;;;;;5092972;28;20028;-68
2022/01/27 04:32:46;;;;;;;5.32;3.28;;;;;;;;;;5093101;28;20024;-67
2022/01/27 04:35:16;;;;;;;4.32;3.17;;;;;;;;;;5093135;28;20032;-68
2022/01/27 04:37:55;;;;;;;5.75;3.72;;;14.40;92.00;;;;;;5093014;28;20028;-68
2022/01/27 04:40:28;;;;;;;4.18;3.30;;;;;;;;;;5092701;28;20060;-67
2022/01/27 04:43:06;;;;;;;4.68;3.53;;;;;;;;;;5092953;28;20028;-68
2022/01/27 04:45:45;;;;;;;5.55;3.35;;;;;;;;;;5093043;28;20042;-68
2022/01/27 04:48:15;;;;;;;4.30;3.03;;;;;;;;;;5092733;28;20077;-69
2022/01/27 04:50:41;;;;;;;4.38;3.47;;;;;;;;;;5092638;28;20024;-68
2022/01/27 04:53:12;;;;;;;4.68;3.90;;;;;;;;;;5092891;28;20095;-68
2022/01/27 04:55:38;;;;;;;5.22;3.28;;;;;;;;;;5092541;28;20024;-68
2022/01/27 04:58:18;;;;;;;5.00;3.47;;;;;;;;;;5092851;28;20103;-69
2022/01/27 05:00:44;;;;;;;3.50;3.10;;;;;;;;;;5092511;28;20028;-69
2022/01/27 05:03:17;;;;;;;4.38;3.15;;;;;;;;;;5092095;28;20815;-69
2022/01/27 05:05:43;;;;;;;5.95;3.75;;;;;;;;;;5092472;28;20031;-69
2022/01/27 05:08:16;;;;;;;5.47;3.17;;;;;;;;;;5092810;28;20150;-69
2022/01/27 05:10:42;;;;;;;4.65;3.17;;;;;;;;;;5092648;28;20036;-69
2022/01/27 05:13:12;;;;;;;5.97;3.30;;;;;;;;;;5092648;28;20024;-69
2022/01/27 05:15:44;;;;;;;5.80;3.55;;;;;;;;;;5092251;28;20032;-69
2022/01/27 05:18:10;;;;;;;5.25;3.00;;;;;;;;;;5092345;28;20035;-68
2022/01/27 05:20:36;;;;;;;4.57;2.72;;;;;;;;;;5092253;28;20028;-69
2022/01/27 05:23:02;;;;;;;5.15;3.30;;;;;;;;;;5092219;28;20032;-69
2022/01/27 05:25:28;;;;;;;4.65;3.03;;;;;;;;;;5094205;28;20028;-69
2022/01/27 05:27:54;;;;;;;7.50;3.80;;;;;;;;;;5096329;28;20131;-70
2022/01/27 05:30:20;;;;;;;3.45;2.67;;;;;;;;;;5096308;28;20089;-69
2022/01/27 05:32:46;;;;;;;3.25;2.70;;;;;;;;;;5096267;28;20024;-70
2022/01/27 05:35:12;;;;;;;4.78;2.92;;;;;;;;;;5096256;28;20036;-69
2022/01/27 05:37:38;;;;;;;4.00;2.92;;;;;;;;;;5096134;28;20078;-69
2022/01/27 05:40:04;;;;;;;4.03;2.75;;;;;;;;;;5096215;28;20024;-70
2022/01/27 05:42:30;;;;;;;4.07;3.05;;;;;;;;;;5096117;28;20028;-68
2022/01/27 05:44:56;;;;;;;4.70;2.70;;;;;;;;;;5096270;28;20028;-69
2022/01/27 05:47:22;;;;;;;5.50;3.08;;;;;;;;;;5096032;28;20406;-70
2022/01/27 05:49:48;;;;;;;4.22;3.10;;;;;;;;;;5095915;28;20024;-69
2022/01/27 05:52:14;;;;;;;3.45;2.53;;;;;;;;;;5096126;28;20028;-70
2022/01/27 05:54:40;;;;;;;4.50;3.20;;;;;;;;;;5095861;28;20047;-69
2022/01/27 05:57:06;;;;;;;4.60;3.25;;;;;;;;;;5096077;28;20020;-70
2022/01/27 05:59:32;;;;;;;4.95;3.40;;;;;;;;;;5095804;28;20031;-68
2022/01/27 06:01:58;;;;;;;3.63;2.55;;;;;;;;;;5095681;28;20024;-47
2022/01/27 06:04:24;;;;;;;3.70;2.72;;;;;;;;;;5095463;28;20052;-46
2022/01/27 06:06:50;;;;;;;3.20;2.50;;;;;;;;;;5095586;28;20028;-46
2022/01/27 06:09:16;;;;;;;3.85;2.72;;;;;;;;;;5095593;28;20032;-46
2022/01/27 06:11:42;;;;;;;5.75;2.92;;;;;;;;;;5095463;28;20103;-46
2022/01/27 06:14:08;;;;;;;4.57;2.58;;;;;;;;;;5095499;28;20067;-46
2022/01/27 06:16:34;;;;;;;4.28;2.58;;;;;;;;;;5095426;28;20036;-46
2022/01/27 06:19:02;;;;;;;4.43;2.40;;;;;;;;;;5095421;28;20077;-46
2022/01/27 06:21:28;;;;;;;3.17;2.40;;;;;;;;;;5095700;28;20024;-46
2022/01/27 06:23:54;;;;;;;4.00;2.50;;;;;;;;;;5095153;28;20028;-47
2022/01/27 06:26:20;;;;;;;7.55;2.67;;;;;;;;;;5095281;28;20034;-46
2022/01/27 06:28:46;;;;;;;3.35;2.50;;;;;;;;;;5095230;28;20031;-46
2022/01/27 06:31:12;;;;;;;3.40;2.20;;;;;;;;;;5095408;28;20105;-45
2022/01/27 06:33:38;;;;;;;3.15;2.00;;;;;;;;;;5095370;28;20024;-46
2022/01/27 06:36:04;;;;;;;4.65;2.17;;;;;;;;;;5094861;28;20028;-46
2022/01/27 06:38:30;;;;;;;5.88;2.30;;;;;;;;;;5095010;28;20089;-68
2022/01/27 06:40:56;;;;;;;2.55;2.03;;;;;;;;;;5093733;28;20029;-68
2022/01/27 06:43:22;;;;;;;4.55;2.38;;;;;;;;;;5094877;28;20028;-68
2022/01/27 06:45:48;;;;;;;5.05;2.75;;;;;;;;;;5094845;28;20071;-68
2022/01/27 06:48:14;;;;;;;3.90;2.30;;;;;;;;;;5094831;28;20099;-68
2022/01/27 06:50:40;;;;;;;3.28;2.20;;;;;;;;;;5094770;28;20024;-68
2022/01/27 06:53:06;;;;;;;4.70;2.63;;;;;;;;;;5094779;28;20379;-68
2022/01/27 06:55:32;;;;;;;2.55;1.92;;;;;;;;;;5095234;28;20028;-72
2022/01/27 06:57:58;;;;;;;3.38;2.00;;;;;;;;;;5094731;28;20103;-48
2022/01/27 07:00:24;;;;;;;3.55;2.40;;;;;;;;;;5094630;28;20550;-46
2022/01/27 07:02:50;;;;;;;3.85;2.15;;;;;;;;;;5094543;28;20513;-46
2022/01/27 07:05:18;;;;;;;3.95;2.22;;;;;;;;;;5094449;28;20482;-46
2022/01/27 07:07:44;;;;;;;4.88;2.35;;;;;;;;;;5094444;28;20034;-46
2022/01/27 07:10:10;;;;;;;3.97;2.50;;;;;;;;;;5094180;28;20032;-47
2022/01/27 07:12:39;;;;;;;5.40;2.55;;;16.00;91.30;;;;;;5094440;28;20394;-46
2022/01/27 07:15:05;;;;;;;5.28;2.88;;;;;;;;;;5094259;28;20025;-46
2022/01/27 07:17:31;;;;;;;4.72;2.55;;;;;;;;;;5094312;28;20478;-46
2022/01/27 07:19:57;;;;;;;6.90;2.25;;;;;;;;;;5094166;28;20035;-46
2022/01/27 07:22:23;;;;;;;6.97;2.97;;;;;;;;;;5094153;28;20028;-46
2022/01/27 07:24:49;;;;;;;3.08;2.30;;;;;;;;;;5093993;28;20043;-47
2022/01/27 07:27:16;;;;;;;4.88;2.40;;;;;;;;;;5094244;28;20024;-46
2022/01/27 07:29:43;;;;;;;3.88;2.30;;;;;;;;;;5094530;28;20059;-46
2022/01/27 07:32:09;;;;;;;3.78;2.35;;;;;;;;;;5094304;28;20528;-47
2022/01/27 07:34:35;;;;;;;5.05;2.85;;;;;;;;;;5094017;28;20028;-46
2022/01/27 07:37:02;;;;;;;5.10;2.00;;;;;;;;;;5093922;28;20289;-47
2022/01/27 07:39:28;;;;;;;5.47;2.33;;;;;;;;;;5093935;28;20024;-46
2022/01/27 07:41:57;;;;;;;4.25;2.13;;;;;;;;;;5093829;28;20042;-46
2022/01/27 07:44:23;;;;;;;5.53;2.80;;;;;;;;;;5093886;28;20036;-47
2022/01/27 07:46:49;;;;;;;6.28;2.17;;;;;;;;;;5093566;28;20044;-46
2022/01/27 07:49:15;;;;;;;3.85;2.25;;;;;;;;;;5092911;28;20064;-46
2022/01/27 07:51:41;;;;;;;5.40;2.30;;;;;;;;;;5093603;28;20024;-65
2022/01/27 07:54:07;;;;;;;4.35;1.95;;;;;;;;;;5093638;28;20028;-66
2022/01/27 07:56:33;;;;;;;5.28;2.35;;;;;;;;;;5093374;28;20035;-66
2022/01/27 07:58:59;;;;;;;4.10;2.20;;;;;;;;;;5093299;28;20498;-66
2022/01/27 08:01:25;;;;;;;5.82;2.10;;;;;;;;;;5093217;28;20024;-66
2022/01/27 08:03:51;;;;;;;5.15;3.05;;;;;;;;;;5093239;28;20387;-66
2022/01/27 08:06:17;;;;;;;5.68;2.40;;;;;;;;;;5093343;28;20035;-65
2022/01/27 08:08:43;;;;;;;4.55;2.22;;;;;;;;;;5093333;28;20028;-66
2022/01/27 08:11:09;;;;;;;5.72;2.38;;;;;;;;;;5093300;28;20031;-66
2022/01/27 08:13:37;;;;;;;4.38;2.45;;;;;;;;;;5093209;28;20074;-66
2022/01/27 08:16:03;;;;;;;3.85;2.15;;;;;;;;;;5093166;28;20111;-66
2022/01/27 08:18:29;;;;;;;5.05;2.65;;;;;;;;;;5093087;28;20035;-66
2022/01/27 08:20:55;;;;;;;5.10;2.72;;;;;;;;;;5093132;28;20020;-65
2022/01/27 08:23:21;;;;;;;7.30;2.67;;;;;;;;;;5093018;28;20441;-66
2022/01/27 08:25:52;;;;;;;8.73;2.45;;;;;;;;;;5092928;28;20034;-66
2022/01/27 08:28:33;;;;;;;3.28;2.10;;;;;;;;;;5092982;28;20468;-66
2022/01/27 08:31:00;;;;;;;4.68;2.10;;;;;;;;;;5093024;28;20028;-66
2022/01/27 08:33:29;;;;;;;2.50;1.95;;;;;;;;;;5092847;28;20067;-66
2022/01/27 08:35:56;;;;;;;3.15;2.10;;;;;;;;;;5092722;28;20060;-66
2022/01/27 08:38:21;;;;;;;6.03;2.63;;;;;;;;;;5093041;28;20024;-66
2022/01/27 08:40:47;;;;;;;3.95;2.20;;;;;;;;;;5092717;28;20024;-66
2022/01/27 08:43:13;;;;;;;3.65;2.45;;;;;;;;;;5092417;28;20293;-67
2022/01/27 08:45:42;;;;;;;3.83;2.25;;;;;;;;;;5092453;28;20071;-66
2022/01/27 08:48:10;;;;;;;5.65;2.28;;;;;;;;;;5092443;28;20470;-66
2022/01/27 08:50:36;;;;;;;6.43;2.30;;;;;;;;;;5092205;28;20028;-65
2022/01/27 08:53:02;;;;;;;3.03;1.85;;;;;;;;;;5092331;28;20039;-65
2022/01/27 08:55:28;;;;;;;2.03;1.55;;;;;;;;;;5092595;28;20065;-65
2022/01/27 08:57:55;;;;;;;4.35;1.75;;;;;;;;;;5092618;28;20024;-65
2022/01/27 09:00:21;;;;;;;3.30;2.10;;;;;;;;;;5092127;28;20035;-65
2022/01/27 09:02:47;;;;;;;4.78;2.17;;;;;;;;;;5091898;28;20035;-65
2022/01/27 09:05:13;;;;;;;5.25;2.20;;;;;;;;;;5092278;28;20036;-66
2022/01/27 09:07:39;;;;;;;5.68;2.08;;;;;;;;;;5092194;28;20028;-66
2022/01/27 09:10:06;;;;;;;6.45;2.20;;;15.90;90.70;;;;;;5092110;28;20036;-66
2022/01/27 09:12:32;;;;;;;3.47;2.00;;;;;;;;;;5092013;28;20039;-66
2022/01/27 09:15:01;;;;;;;9.43;2.25;;;;;;;;;;5092398;28;20056;-66
2022/01/27 09:17:27;;;;;;;4.57;2.00;;;;;;;;;;5092149;28;20473;-66
2022/01/27 09:19:53;;;;;;;5.47;1.73;;;15.90;89.90;;;;;;5092337;28;20556;-66
2022/01/27 09:22:19;;;;;;;3.22;2.15;;;;;;;;;;5092257;28;20089;-65
2022/01/27 09:24:59;;;;;;;4.93;1.65;;;15.90;91.30;;;;;;5092205;28;20111;-66
2022/01/27 09:27:26;;;;;;;4.18;1.92;;;15.90;91.10;;;;;;5092383;28;20024;-65
2022/01/27 09:29:53;;;;;;;4.82;1.80;;;15.90;91.40;;;;;;5091906;28;20039;-66
2022/01/27 09:32:19;;;;;;;4.50;2.22;;;;;;;;;;5092187;28;20024;-66
2022/01/27 09:34:46;;;;;;;3.83;1.95;;;;;;;;;;5091893;28;20051;-66
2022/01/27 09:37:12;;;;;;;4.10;2.05;;;;;;;;;;5092036;28;20028;-66
2022/01/27 09:39:38;;;;;;;3.30;2.28;;;;;;;;;;5091920;28;20032;-66
2022/01/27 09:42:06;;;;;;;1.85;1.40;;;15.80;91.30;;;;;;5091953;28;20027;-66
2022/01/27 09:44:33;;;;;;;3.97;1.67;;;;;;;;;;5091851;28;20040;-67
2022/01/27 09:47:05;;;;;;;3.15;1.80;;;15.80;91.20;;;;;;5092090;28;20025;-66
2022/01/27 09:49:36;;;;;;;2.78;1.63;;;;;;;;;;5091900;28;20024;-66
2022/01/27 09:52:04;;;;;;;5.22;1.77;;;15.80;88.80;;;;;;5091841;28;20024;-66
2022/01/27 09:54:30;;;;;;;3.75;1.92;;;;;;;;;;5091745;28;20032;-66
2022/01/27 09:56:56;;;;;;;5.07;2.03;;;;;;;;;;5091682;28;20035;-66
2022/01/27 09:59:23;;;;;;;2.42;1.65;;;15.90;90.80;;;;;;5091674;28;20059;-65
2022/01/27 10:01:53;;;;;;;4.47;2.17;;;15.80;85.90;;;;;;5091918;28;20020;-64
2022/01/27 10:04:19;;;;;;;3.30;1.77;;;;;;;;;;5091430;28;20052;-64
2022/01/27 10:06:45;;;;;;;2.72;1.75;;;;;;;;;;5091712;28;20031;-64
2022/01/27 10:09:29;;;;;;;3.70;1.60;;;15.80;86.00;;;;;;5091754;28;20039;-64
2022/01/27 10:11:55;;;;;;;2.22;1.75;;;;;;;;;;5093920;28;20024;-64
2022/01/27 10:14:26;;;;;;;2.33;1.38;;;15.80;86.00;;;;;;5095334;28;20024;-65
2022/01/27 10:16:59;;;;;;;3.38;1.58;;;15.80;91.10;;;;;;5095271;28;20032;-65
2022/01/27 10:19:26;;;;;;;4.65;1.85;;;;;;;;;;5095764;28;20428;-46
2022/01/27 10:21:59;;;;;;;1.90;1.40;;;15.80;91.00;;;;;;5095567;28;20182;-46
2022/01/27 10:24:28;;;;;;;3.30;1.90;;;15.80;90.40;;;;;;5095485;28;20394;-47
2022/01/27 10:27:21;;;;;;;2.08;1.35;;;15.80;86.10;;;;;;5095157;28;20024;-45
2022/01/27 10:30:36;;;;;;;5.82;1.40;;;;;;;;;;5095370;28;20420;-46
2022/01/27 10:32:43;;;;;;;2.75;1.55;;;15.80;85.90;;;;;;5089299;28;20094;-45
2022/01/27 10:35:13;;;;;;;3.45;1.42;;;15.90;91.10;;;;;;5094949;28;20077;-45
2022/01/27 10:38:06;;;;;;;3.15;1.60;;;15.80;86.00;;;;;;5095488;28;20099;-46
2022/01/27 10:40:34;;;;;;;2.00;1.42;;;;;;;;;;5094820;28;20390;-46
2022/01/27 10:43:20;;;;;;;2.83;1.42;;;15.80;85.80;;;;;;5094714;28;20095;-46
2022/01/27 10:46:05;;;;;;;2.05;1.65;;;15.80;86.30;;;;;;5094715;28;20115;-45
2022/01/27 10:48:33;;;;;;;3.25;1.55;;;;;;;;;;5094703;28;20479;-46
2022/01/27 10:51:07;;;;;;;2.53;1.52;;;;;;;;;;5094983;28;20043;-45
2022/01/27 10:56:31;;;;;;;4.05;2.05;;;;;;;;;;5094145;28;20036;-64
2022/01/27 10:59:00;;;;;;;2.35;1.90;;;15.80;89.90;;;;;;5094523;28;20020;-64
2022/01/27 11:01:29;;;;;;;3.72;1.20;;;16.00;91.20;;;;;;5094339;28;20039;-64
2022/01/27 11:03:57;;;;;;;2.35;1.45;;;15.80;89.50;;;;;;5094153;28;20387;-64
2022/01/27 11:06:25;;;;;;;3.22;1.55;;;;;;;;;;5094588;28;20034;-64
2022/01/27 11:08:54;;;;;;;3.15;1.60;;;;;;;;;;5094176;28;20064;-65
2022/01/27 11:11:22;;;;;;;3.60;1.80;;;15.90;91.20;;;;;;5094489;28;20036;-64
2022/01/27 11:13:49;;;;;;;3.08;1.65;;;15.80;91.10;;;;;;5094311;28;20114;-45
2022/01/27 11:16:17;;;;;;;1.88;1.67;;;;;;;;;;5094239;28;20028;-46
2022/01/27 11:18:46;;;;;;;4.13;1.40;;;;;;;;;;5094405;28;20036;-45
2022/01/27 11:21:26;;;;;;;3.13;1.38;;;;;;;;;;5094375;28;20032;-45
2022/01/27 11:24:07;;;;;;;3.38;1.67;;;;;;;;;;5093859;28;20035;-46
2022/01/27 11:26:37;;;;;;;2.40;1.48;;;15.80;91.10;;;;;;5094286;28;20393;-45
2022/01/27 11:29:05;;;;;;;3.37;1.77;;;15.80;91.30;;;;;;5093925;28;20052;-46
2022/01/27 11:31:52;;;;;;;2.92;1.75;;;16.00;86.40;;;;;;5093747;28;20103;-46
2022/01/27 11:34:18;;;;;;;3.40;1.90;;;;;;;;;;5093932;28;20413;-45
2022/01/27 11:37:04;;;;;;;4.10;1.35;;;15.90;91.30;;;;;;5093612;28;20034;-46
2022/01/27 11:39:54;;;;;;;3.60;1.63;;;15.90;86.10;;;;;;5093911;28;20020;-46
2022/01/27 11:42:35;;;;;;;4.00;1.80;;;15.90;91.10;;;;;;5093782;28;20024;-45
2022/01/27 11:45:25;;;;;;;2.92;1.45;;;15.90;86.20;;;;;;5093400;28;20039;-45
2022/01/27 11:47:57;;;;;;;3.03;1.25;;;16.00;91.10;;;;;;5093914;28;20374;-47
2022/01/27 11:50:37;;;;;;;3.80;1.70;;;16.00;85.70;;;;;;5093640;28;20519;-64
2022/01/27 11:53:08;;;;;;;1.50;1.30;;;16.10;91.20;;;;;;5093807;28;20047;-45
2022/01/27 11:55:34;;;;;;;3.58;1.50;;;;;;;;;;5093373;28;20064;-45
2022/01/27 11:58:11;;;;;;;4.72;1.65;;;16.10;91.00;;;;;;5093408;28;20044;-46
2022/01/27 12:00:39;;;;;;;2.85;1.42;;;;;;;;;;5093417;28;20032;-46
2022/01/27 12:03:10;;;;;;;2.80;1.65;;;16.10;87.80;;;;;;5093164;28;20448;-46
2022/01/27 12:05:42;;;;;;;2.38;1.30;;;16.10;85.70;;;;;;5093500;28;20059;-46
2022/01/27 12:08:17;;;;;;;3.95;1.45;;;16.10;85.90;;;;;;5093137;28;20107;-45
2022/01/27 12:10:51;;;;;;;2.65;1.75;;;16.10;91.00;;;;;;5093192;28;20077;-45
2022/01/27 12:18:59;;;;;;;2.55;1.58;;;16.10;91.10;;;;;;5093181;28;20117;-45
2022/01/27 12:21:37;;;;;;;4.22;1.55;;;16.00;86.10;;;;;;5093194;28;20024;-46
2022/01/27 12:24:13;;;;;;;2.83;1.58;;;;;;;;;;5092924;28;20047;-46
2022/01/27 12:26:54;;;;;;;2.35;1.35;;;16.10;85.90;;;;;;5092904;28;20129;-64
2022/01/27 12:29:41;;;;;;;1.55;1.20;;;16.10;86.00;;;;;;5092990;28;20020;-64
2022/01/27 12:32:09;;;;;;;2.67;1.27;;;16.00;89.00;;;;;;5093126;28;20016;-64
2022/01/27 12:34:37;;;;;;;4.72;1.58;;;16.00;91.10;;;;;;5092354;28;20020;-64
2022/01/27 12:37:08;;;;;;;2.33;1.30;;;16.10;85.80;;;;;;5092706;28;20113;-64
2022/01/27 12:39:41;;;;;;;2.50;1.33;;;16.00;85.70;;;;;;5092872;28;20024;-64
2022/01/27 12:42:09;;;;;;;3.13;1.30;;;16.00;91.20;;;;;;5092901;28;20032;-64
2022/01/27 12:44:36;;;;;;;2.97;1.42;;;16.00;89.60;;;;;;5092847;28;20032;-65
2022/01/27 12:47:02;;;;;;;3.63;1.35;;;;;;;;;;5092673;28;20510;-64
2022/01/27 12:49:51;;;;;;;3.20;1.30;;;16.00;86.40;;;;;;5092549;28;20320;-64
2022/01/27 12:52:20;;;;;;;2.25;1.30;;;15.80;91.30;;;;;;5092572;28;20031;-63
2022/01/27 12:54:51;;;;;;;3.03;1.48;;;15.70;91.40;;;;;;5092392;28;20016;-64
2022/01/27 12:57:26;;;;;;;1.50;1.08;;;15.60;91.50;;;;;;5092789;28;20038;-64
2022/01/27 12:59:55;;;;;;;5.38;1.60;;;15.70;91.40;;;;;;5092482;28;20518;-64
2022/01/27 13:02:23;;;;;;;3.60;1.40;;;15.70;91.60;;;;;;5092331;28;20118;-64
2022/01/27 13:05:01;;;;;;;2.83;1.67;;;15.80;91.30;;;;;;5092263;28;20502;-64
2022/01/27 13:07:28;;;;;;;2.83;1.40;;;15.90;91.30;;;;;;5092417;28;20466;-64
2022/01/27 13:10:08;;;;;;;3.72;1.50;;;15.80;91.20;;;;;;5091041;28;20474;-64
2022/01/27 13:12:42;;;;;;;1.92;1.20;;;;;;;;;;5092374;28;20025;-63
2022/01/27 13:15:12;;;;;;;1.70;1.30;;;16.10;91.00;;;;;;5092575;28;20025;-64
2022/01/27 13:17:50;;;;;;;2.85;1.25;;;16.10;91.10;;;;;;5092193;28;20493;-66
2022/01/27 13:23:17;;;;;;;3.35;1.40;;;16.30;91.00;;;;;;5092299;28;20039;-62
2022/01/27 13:25:45;;;;;;;2.05;1.20;;;16.40;91.00;;;;;;5092206;28;20085;-63
2022/01/27 13:28:19;;;;;;;1.88;1.10;;;16.50;91.00;;;;;;5092198;28;20046;-63
2022/01/27 13:30:46;;;;;;;2.00;0.93;;;;;;;;;;5092027;28;20036;-62
2022/01/27 13:33:16;;;;;;;3.67;1.67;;;16.60;85.90;;;;;;5092003;28;20238;-63
2022/01/27 13:35:42;;;;;;;2.92;1.45;;;;;;;;;;5092138;28;20096;-63
2022/01/27 13:38:28;;;;;;;3.20;1.52;;;16.80;86.00;;;;;;5091879;28;20024;-63
2022/01/27 13:41:17;;;;;;;4.15;1.50;;;16.80;86.00;;;;;;5091802;28;20470;-45
2022/01/27 13:43:45;;;;;;;2.75;1.35;;;16.60;90.90;;;;;;5091925;28;20036;-62
2022/01/27 13:46:31;;;;;;;2.38;1.20;;;17.00;90.60;;;;;;5093436;28;20541;-62
2022/01/27 13:49:08;;;;;;;2.75;1.23;;;16.90;90.70;;;;;;5095733;28;20028;-62
2022/01/27 13:51:34;;;;;;;2.55;1.00;;;;;;;;;;5095823;28;20044;-62
2022/01/27 13:54:00;;;;;;;2.85;1.30;;;;;;;;;;5095763;28;20024;-63
2022/01/27 13:56:40;;;;;;;2.05;1.25;;;17.00;90.80;;;;;;5095681;28;20085;-62
2022/01/27 13:59:16;;;;;;;3.20;1.67;;;17.00;88.70;;;;;;5096003;28;20016;-66
2022/01/27 14:01:43;;;;;;;3.00;1.15;;;;;;;;;;5095555;28;20028;-47
2022/01/27 14:04:09;;;;;;;3.17;1.20;;;;;;;;;;5095389;28;20471;-46
2022/01/27 14:06:56;;;;;;;4.70;1.23;;;17.10;85.20;;;;;;5095488;28;20074;-46
2022/01/27 14:09:25;;;;;;;3.58;1.38;;;17.10;90.50;;;;;;5095861;28;20032;-46
2022/01/27 14:12:04;;;;;;;2.13;1.25;;;17.10;84.70;;;;;;5095768;28;20028;-46
2022/01/27 14:14:49;;;;;;;1.98;1.10;;;17.20;84.80;;;;;;5095576;28;20193;-47
2022/01/27 14:17:27;;;;;;;1.92;1.15;;;17.20;84.70;;;;;;5095471;28;20028;-46
2022/01/27 14:19:54;;;;;;;1.95;1.02;;;17.30;90.40;;;;;;5095677;28;20028;-63
2022/01/27 14:22:21;;;;;;;3.05;1.30;;;17.40;89.50;;;;;;5095407;28;20476;-62
2022/01/27 14:25:00;;;;;;;2.67;0.98;;;17.40;84.40;;;;;;5095461;28;20418;-63
2022/01/27 14:27:44;;;;;;;3.70;1.00;;;17.40;84.50;;;;;;5095545;28;20065;-63
2022/01/27 14:30:15;;;;;;;2.83;1.45;;;17.40;90.40;;;;;;5095507;28;20080;-63
2022/01/27 14:32:44;;;;;;;1.55;1.00;;;;;;;;;;5095419;28;20024;-63
2022/01/27 14:35:13;;;;;;;2.57;1.13;;;17.50;90.50;;;;;;5095222;28;20032;-63
2022/01/27 14:37:40;;;;;;;1.55;1.05;;;17.50;90.30;;;;;;5095036;28;20020;-46
2022/01/27 14:40:12;;;;;;;2.38;1.02;;;17.50;90.40;;;;;;5095010;28;20028;-46
2022/01/27 14:42:39;;;;;;;2.55;1.20;;;;;;;;;;5094846;28;20026;-46
2022/01/27 14:45:07;;;;;;;2.15;0.90;;;;;;;;;;5094904;28;20044;-47
2022/01/27 14:47:36;;;;;;;1.77;0.88;;;;;;;;;;5094646;28;20027;-46
2022/01/27 14:50:02;;;;;;;2.90;1.05;;;;;;;;;;5094765;28;20032;-46
2022/01/27 14:52:30;;;;;;;1.98;0.88;;;;;;;;;;5094856;28;20060;-46
2022/01/27 14:54:57;;;;;;;2.60;1.23;;;;;;;;;;5094610;28;20020;-63
2022/01/27 14:57:23;;;;;;;3.28;1.20;;;;;;;;;;5094375;28;20373;-63
2022/01/27 14:59:49;;;;;;;2.05;0.90;;;;;;;;;;5094452;28;20028;-63
2022/01/27 15:02:15;;;;;;;2.15;1.02;;;;;;;;;;5094414;28;20111;-63
2022/01/27 15:04:41;;;;;;;1.65;0.88;;;;;;;;;;5094138;28;20044;-63
2022/01/27 15:07:07;;;;;;;3.58;1.50;;;;;;;;;;5094294;28;20449;-63